createdAt,value
2023-02-05T00:01:35.131Z,16.07
2023-02-05T00:04:02.332Z,18.83
2023-02-05T00:06:29.217Z,20.27
2023-02-05T00:08:57.580Z,16.00
2023-02-05T00:11:24.806Z,16.10
2023-02-05T00:13:51.955Z,16.73
2023-02-05T00:16:22.976Z,13.40
2023-02-05T00:18:50.403Z,18.67
2023-02-05T00:21:18.669Z,18.87
2023-02-05T00:23:46.558Z,15.43
2023-02-05T00:26:14.321Z,23.63
2023-02-05T00:28:42.138Z,15.53
2023-02-05T00:31:16.286Z,18.87
2023-02-05T00:33:44.216Z,19.03
2023-02-05T00:36:13.071Z,14.17
2023-02-05T00:38:41.151Z,17.33
2023-02-05T00:41:08.898Z,21.97
2023-02-05T00:43:35.880Z,17.53
2023-02-05T00:46:02.847Z,17.27
2023-02-05T00:48:29.917Z,22.80
2023-02-05T00:50:57.108Z,15.10
2023-02-05T00:53:26.985Z,13.60
2023-02-05T00:55:54.149Z,13.50
2023-02-05T00:58:21.655Z,17.00
2023-02-05T01:00:51.014Z,15.73
2023-02-05T01:03:19.428Z,12.50
2023-02-05T01:05:46.904Z,18.13
2023-02-05T01:08:14.861Z,15.23
2023-02-05T01:10:49.922Z,16.70
2023-02-05T01:13:18.734Z,11.97
2023-02-05T01:15:46.276Z,14.83
2023-02-05T01:18:13.583Z,12.73
2023-02-05T01:20:42.105Z,9.37
2023-02-05T01:23:10.037Z,13.63
2023-02-05T01:25:38.033Z,13.67
2023-02-05T01:28:06.822Z,12.70
2023-02-05T01:30:34.814Z,12.77
2023-02-05T01:33:02.958Z,11.27
2023-02-05T01:35:29.878Z,10.57
2023-02-05T01:37:56.956Z,14.10
2023-02-05T01:40:23.918Z,16.13
2023-02-05T01:42:50.944Z,16.00
2023-02-05T01:45:23.660Z,14.80
2023-02-05T01:47:57.180Z,12.10
2023-02-05T01:50:31.980Z,14.13
2023-02-05T01:53:03.460Z,17.67
2023-02-05T01:55:31.809Z,11.13
2023-02-05T01:58:00.540Z,11.47
2023-02-05T02:00:27.550Z,11.00
2023-02-05T02:02:54.504Z,10.60
2023-02-05T02:05:21.457Z,12.23
2023-02-05T02:07:48.496Z,8.20
2023-02-05T02:10:18.315Z,10.27
2023-02-05T02:12:47.910Z,11.57
2023-02-05T02:15:21.856Z,9.63
2023-02-05T02:18:17.621Z,10.27
2023-02-05T02:20:45.117Z,10.80
2023-02-05T02:23:15.006Z,10.53
2023-02-05T02:26:03.117Z,13.20
2023-02-05T02:28:36.060Z,16.20
2023-02-05T02:31:09.655Z,16.50
2023-02-05T02:33:42.721Z,11.97
2023-02-05T02:36:34.973Z,12.70
2023-02-05T02:39:34.271Z,15.37
2023-02-05T02:42:14.590Z,11.07
2023-02-05T02:44:47.888Z,13.53
2023-02-05T02:47:29.354Z,8.80
2023-02-05T02:50:35.366Z,10.00
2023-02-05T02:53:25.520Z,14.30
2023-02-05T02:55:55.954Z,16.77
2023-02-05T02:58:39.379Z,16.73
2023-02-05T03:01:09.110Z,18.17
2023-02-05T03:03:41.099Z,14.13
2023-02-05T03:06:11.912Z,11.03
2023-02-05T03:09:03.520Z,11.67
2023-02-05T03:11:30.615Z,18.97
2023-02-05T03:13:57.922Z,10.10
2023-02-05T03:16:27.233Z,14.97
2023-02-05T03:18:55.928Z,15.30
2023-02-05T03:21:39.781Z,11.87
2023-02-05T03:24:08.170Z,20.57
2023-02-05T03:26:36.232Z,12.07
2023-02-05T03:29:09.082Z,21.10
2023-02-05T03:31:40.656Z,12.23
2023-02-05T03:35:07.585Z,15.20
2023-02-05T03:38:19.149Z,16.30
2023-02-05T03:41:10.526Z,10.20
2023-02-05T03:43:39.986Z,13.23
2023-02-05T03:46:22.776Z,10.77
2023-02-05T03:49:44.375Z,10.30
2023-02-05T03:52:17.891Z,16.20
2023-02-05T03:54:59.593Z,13.57
2023-02-05T03:57:46.329Z,13.10
2023-02-05T04:00:14.220Z,9.40
2023-02-05T04:02:42.752Z,13.90
2023-02-05T04:05:09.705Z,10.53
2023-02-05T04:07:36.648Z,11.53
2023-02-05T04:10:03.892Z,12.10
2023-02-05T04:12:30.804Z,10.47
2023-02-05T04:14:57.772Z,8.40
2023-02-05T04:17:24.698Z,9.60
2023-02-05T04:19:51.584Z,12.03
2023-02-05T04:22:18.443Z,10.30
2023-02-05T04:24:45.336Z,11.60
2023-02-05T04:27:12.290Z,13.07
2023-02-05T04:29:39.248Z,10.00
2023-02-05T04:32:06.147Z,10.67
2023-02-05T04:34:33.032Z,10.80
2023-02-05T04:36:59.903Z,13.87
2023-02-05T04:39:27.825Z,14.20
2023-02-05T04:41:54.749Z,18.10
2023-02-05T04:44:21.753Z,14.30
2023-02-05T04:46:48.689Z,8.40
2023-02-05T04:49:16.494Z,11.23
2023-02-05T04:51:43.427Z,15.10
2023-02-05T04:54:10.455Z,10.87
2023-02-05T04:56:38.906Z,14.43
2023-02-05T04:59:05.832Z,12.43
2023-02-05T05:01:32.915Z,14.13
2023-02-05T05:03:59.796Z,12.27
2023-02-05T05:06:26.715Z,10.23
2023-02-05T05:08:54.788Z,12.77
2023-02-05T05:11:21.801Z,14.53
2023-02-05T05:13:52.240Z,12.90
2023-02-05T05:16:19.345Z,12.50
2023-02-05T05:18:46.330Z,16.13
2023-02-05T05:21:13.486Z,12.40
2023-02-05T05:23:40.389Z,9.10
2023-02-05T05:26:11.862Z,16.60
2023-02-05T05:28:39.315Z,13.53
2023-02-05T05:31:14.014Z,17.93
2023-02-05T05:33:41.011Z,15.13
2023-02-05T05:36:09.235Z,15.43
2023-02-05T05:38:36.147Z,11.00
2023-02-05T05:41:22.572Z,10.27
2023-02-05T05:43:52.184Z,8.37
2023-02-05T05:46:23.623Z,13.90
2023-02-05T05:48:56.652Z,12.83
2023-02-05T05:51:25.814Z,10.70
2023-02-05T05:53:53.146Z,12.50
2023-02-05T05:56:20.759Z,9.97
2023-02-05T05:58:48.795Z,9.80
2023-02-05T06:01:19.088Z,17.00
2023-02-05T06:03:46.126Z,13.13
2023-02-05T06:06:13.759Z,11.17
2023-02-05T06:08:41.031Z,9.70
2023-02-05T06:11:07.934Z,13.53
2023-02-05T06:13:34.959Z,11.77
2023-02-05T06:16:02.410Z,14.40
2023-02-05T06:18:29.855Z,14.20
2023-02-05T06:20:56.835Z,14.67
2023-02-05T06:23:24.059Z,10.33
2023-02-05T06:25:51.080Z,10.40
2023-02-05T06:28:18.104Z,14.30
2023-02-05T06:30:45.165Z,17.90
2023-02-05T06:33:12.782Z,8.47
2023-02-05T06:35:41.276Z,15.70
2023-02-05T06:38:09.287Z,17.90
2023-02-05T06:40:36.377Z,16.00
2023-02-05T06:43:03.581Z,14.07
2023-02-05T06:45:30.499Z,16.47
2023-02-05T06:47:58.259Z,14.83
2023-02-05T06:50:25.844Z,17.17
2023-02-05T06:52:53.057Z,14.97
2023-02-05T06:55:20.193Z,18.93
2023-02-05T06:57:47.077Z,17.80
2023-02-05T07:00:15.279Z,14.30
2023-02-05T07:02:42.388Z,18.17
2023-02-05T07:05:09.789Z,18.73
2023-02-05T07:07:36.888Z,16.33
2023-02-05T07:10:04.632Z,15.00
2023-02-05T07:12:32.095Z,13.63
2023-02-05T07:14:59.164Z,17.67
2023-02-05T07:17:26.340Z,39.87
2023-02-05T07:19:53.347Z,27.13
2023-02-05T07:22:20.316Z,76.47
2023-02-05T07:24:47.217Z,45.87
2023-02-05T07:27:14.160Z,22.97
2023-02-05T07:29:41.096Z,20.57
2023-02-05T07:32:08.087Z,20.70
2023-02-05T07:34:35.204Z,22.47
2023-02-05T07:37:02.209Z,27.60
2023-02-05T07:39:29.195Z,22.53
2023-02-05T07:41:56.127Z,29.43
2023-02-05T07:44:22.992Z,15.67
2023-02-05T07:46:50.103Z,22.20
2023-02-05T07:49:17.340Z,21.67
2023-02-05T07:51:44.337Z,17.47
2023-02-05T07:54:15.964Z,16.13
2023-02-05T07:56:43.189Z,18.87
2023-02-05T07:59:12.963Z,17.13
2023-02-05T08:01:40.034Z,16.40
2023-02-05T08:04:07.049Z,27.93
2023-02-05T08:06:34.931Z,21.27
2023-02-05T08:09:02.344Z,18.87
2023-02-05T08:11:30.713Z,20.70
2023-02-05T08:13:59.301Z,17.33
2023-02-05T08:16:26.292Z,19.37
2023-02-05T08:18:53.285Z,19.70
2023-02-05T08:21:21.786Z,18.57
2023-02-05T08:23:49.616Z,19.00
2023-02-05T08:26:18.164Z,15.17
2023-02-05T08:28:46.070Z,22.90
2023-02-05T08:31:17.377Z,20.90
2023-02-05T08:33:45.863Z,18.87
2023-02-05T08:36:12.845Z,20.20
2023-02-05T08:38:39.694Z,18.53
2023-02-05T08:41:12.725Z,26.37
2023-02-05T08:43:46.378Z,17.03
2023-02-05T08:46:19.175Z,23.23
2023-02-05T08:48:47.363Z,28.70
2023-02-05T08:51:15.887Z,23.20
2023-02-05T08:53:43.195Z,25.83
2023-02-05T08:56:10.745Z,20.50
2023-02-05T08:58:38.951Z,25.10
2023-02-05T09:01:17.114Z,20.10
2023-02-05T09:03:45.473Z,20.63
2023-02-05T09:06:15.833Z,16.67
2023-02-05T09:08:43.016Z,20.80
2023-02-05T09:11:10.051Z,18.47
2023-02-05T09:13:37.146Z,22.00
2023-02-05T09:16:04.449Z,21.10
2023-02-05T09:18:31.337Z,23.70
2023-02-05T09:20:58.280Z,19.80
2023-02-05T09:23:25.214Z,23.93
2023-02-05T09:25:52.331Z,19.03
2023-02-05T09:28:19.308Z,16.60
2023-02-05T09:30:46.866Z,21.60
2023-02-05T09:33:14.411Z,15.90
2023-02-05T09:35:42.157Z,15.60
2023-02-05T09:38:13.034Z,16.10
2023-02-05T09:41:05.529Z,18.53
2023-02-05T09:43:55.773Z,15.10
2023-02-05T09:47:05.613Z,20.60
2023-02-05T09:49:41.544Z,20.27
2023-02-05T09:52:20.133Z,18.07
2023-02-05T09:54:57.685Z,21.77
2023-02-05T09:57:36.372Z,23.50
2023-02-05T10:00:21.477Z,24.70
2023-02-05T10:03:18.630Z,23.70
2023-02-05T10:06:23.044Z,18.13
2023-02-05T10:09:04.829Z,20.40
2023-02-05T10:11:57.154Z,22.47
2023-02-05T10:15:08.458Z,23.47
2023-02-05T10:17:56.129Z,22.20
2023-02-05T10:20:33.834Z,23.10
2023-02-05T10:23:16.878Z,22.80
2023-02-05T10:26:25.257Z,26.50
2023-02-05T10:29:18.352Z,23.43
2023-02-05T10:32:32.816Z,20.97
2023-02-05T10:35:18.868Z,22.97
2023-02-05T10:37:52.809Z,22.40
2023-02-05T10:40:43.470Z,20.03
2023-02-05T10:43:30.186Z,27.60
2023-02-05T10:45:58.698Z,26.40
2023-02-05T10:48:48.881Z,23.30
2023-02-05T10:51:18.073Z,23.63
2023-02-05T10:53:45.011Z,21.27
2023-02-05T10:56:18.843Z,25.43
2023-02-05T10:58:59.226Z,22.73
2023-02-05T11:01:38.025Z,23.57
2023-02-05T11:04:14.189Z,25.80
2023-02-05T11:06:52.490Z,21.10
2023-02-05T11:09:25.485Z,24.87
2023-02-05T11:12:05.886Z,26.50
2023-02-05T11:14:39.950Z,23.80
2023-02-05T11:17:24.571Z,22.00
2023-02-05T11:19:57.208Z,26.47
2023-02-05T11:22:33.170Z,26.17
2023-02-05T11:25:27.091Z,27.07
2023-02-05T11:27:56.601Z,27.07
2023-02-05T11:30:53.243Z,26.70
2023-02-05T11:33:23.146Z,29.17
2023-02-05T11:36:03.118Z,26.33
2023-02-05T11:38:50.422Z,24.13
2023-02-05T11:41:52.020Z,24.70
2023-02-05T11:44:31.980Z,29.13
2023-02-05T11:47:01.602Z,28.80
2023-02-05T11:49:38.473Z,19.90
2023-02-05T11:52:13.520Z,19.60
2023-02-05T11:54:45.991Z,25.13
2023-02-05T11:57:21.678Z,21.90
2023-02-05T12:00:09.740Z,26.73
2023-02-05T12:02:42.066Z,22.03
2023-02-05T12:05:25.062Z,26.40
2023-02-05T12:08:19.728Z,25.47
2023-02-05T12:11:28.671Z,19.37
2023-02-05T12:14:18.906Z,24.70
2023-02-05T12:16:51.843Z,20.90
2023-02-05T12:19:50.282Z,23.27
2023-02-05T12:22:26.884Z,25.80
2023-02-05T12:25:50.292Z,29.27
2023-02-05T12:28:42.068Z,28.23
2023-02-05T12:31:49.903Z,25.77
2023-02-05T12:34:48.106Z,26.20
2023-02-05T12:37:36.349Z,27.57
2023-02-05T12:40:13.122Z,30.00
2023-02-05T12:43:27.417Z,25.17
2023-02-05T12:46:05.972Z,23.50
2023-02-05T12:48:54.192Z,24.07
2023-02-05T12:51:31.437Z,23.30
2023-02-05T12:54:35.076Z,22.40
2023-02-05T12:57:13.802Z,26.97
2023-02-05T12:59:51.961Z,25.40
2023-02-05T13:02:46.705Z,29.00
2023-02-05T13:05:24.923Z,22.37
2023-02-05T13:08:02.609Z,23.00
2023-02-05T13:10:54.380Z,25.07
2023-02-05T13:13:35.137Z,20.53
2023-02-05T13:16:09.649Z,19.97
2023-02-05T13:18:47.716Z,25.03
2023-02-05T13:21:37.851Z,19.17
2023-02-05T13:24:50.325Z,20.33
2023-02-05T13:27:51.106Z,24.33
2023-02-05T13:30:39.264Z,19.80
2023-02-05T13:33:08.733Z,19.10
2023-02-05T13:36:27.294Z,18.60
2023-02-05T13:39:34.603Z,20.30
2023-02-05T13:42:28.499Z,15.10
2023-02-05T13:45:11.213Z,18.10
2023-02-05T13:47:56.700Z,19.50
2023-02-05T13:51:10.892Z,15.57
2023-02-05T13:54:24.282Z,16.97
2023-02-05T13:57:36.234Z,64.33
2023-02-05T14:00:05.677Z,35.67
2023-02-05T14:02:44.513Z,19.33
2023-02-05T14:05:13.699Z,18.00
2023-02-05T14:07:50.904Z,15.93
2023-02-05T14:10:35.150Z,20.53
2023-02-05T14:13:32.574Z,20.40
2023-02-05T14:16:28.012Z,19.73
2023-02-05T14:19:01.097Z,26.40
2023-02-05T14:21:30.978Z,24.93
2023-02-05T14:24:03.612Z,18.43
2023-02-05T14:26:56.614Z,17.43
2023-02-05T14:29:45.090Z,17.43
2023-02-05T14:32:31.373Z,19.87
2023-02-05T14:35:32.488Z,19.80
2023-02-05T14:38:03.332Z,19.27
2023-02-05T14:40:38.332Z,20.80
2023-02-05T14:43:16.933Z,19.30
2023-02-05T14:45:50.490Z,19.10
2023-02-05T14:48:47.193Z,18.87
2023-02-05T14:51:28.289Z,23.30
2023-02-05T14:54:21.532Z,19.73
2023-02-05T14:56:54.937Z,19.53
2023-02-05T14:59:36.209Z,20.60
2023-02-05T15:02:03.164Z,20.60
2023-02-05T15:04:54.502Z,18.20
2023-02-05T15:07:26.261Z,15.97
2023-02-05T15:10:21.242Z,25.03
2023-02-05T15:13:09.547Z,18.17
2023-02-05T15:15:38.055Z,16.00
2023-02-05T15:18:22.025Z,17.33
2023-02-05T15:20:52.355Z,17.97
2023-02-05T15:23:30.798Z,16.97
2023-02-05T15:26:20.845Z,17.77
2023-02-05T15:28:57.996Z,17.23
2023-02-05T15:31:34.276Z,15.87
2023-02-05T15:34:30.997Z,36.20
2023-02-05T15:37:10.728Z,21.07
2023-02-05T15:39:43.258Z,16.30
2023-02-05T15:42:17.308Z,18.40
2023-02-05T15:44:44.241Z,15.23
2023-02-05T15:47:37.622Z,14.67
2023-02-05T15:50:05.235Z,17.00
2023-02-05T15:52:33.114Z,17.37
2023-02-05T15:55:11.538Z,19.50
2023-02-05T15:57:39.452Z,18.33
2023-02-05T16:00:10.341Z,15.07
2023-02-05T16:02:39.951Z,16.10
2023-02-05T16:05:23.118Z,13.37
2023-02-05T16:07:57.118Z,15.90
2023-02-05T16:10:30.179Z,14.27
2023-02-05T16:13:21.032Z,14.17
2023-02-05T16:16:01.084Z,15.63
2023-02-05T16:18:38.369Z,14.30
2023-02-05T16:21:30.400Z,18.40
2023-02-05T16:24:04.317Z,13.70
2023-02-05T16:26:46.904Z,14.33
2023-02-05T16:29:47.998Z,17.13
2023-02-05T16:32:39.375Z,17.70
2023-02-05T16:35:35.460Z,12.73
2023-02-05T16:38:08.793Z,13.83
2023-02-05T16:40:43.375Z,14.60
2023-02-05T16:43:25.315Z,12.23
2023-02-05T16:46:13.990Z,15.73
2023-02-05T16:48:54.022Z,14.50
2023-02-05T16:51:33.965Z,12.80
2023-02-05T16:54:27.497Z,15.53
2023-02-05T16:57:16.586Z,15.80
2023-02-05T17:00:13.398Z,14.60
2023-02-05T17:02:42.065Z,14.80
2023-02-05T17:05:38.382Z,15.93
2023-02-05T17:08:09.923Z,14.63
2023-02-05T17:10:59.451Z,17.27
2023-02-05T17:13:46.940Z,15.30
2023-02-05T17:16:31.850Z,16.30
2023-02-05T17:19:04.779Z,17.20
2023-02-05T17:21:36.631Z,19.57
2023-02-05T17:24:09.015Z,16.77
2023-02-05T17:26:40.904Z,15.60
2023-02-05T17:29:15.039Z,18.30
2023-02-05T17:31:44.072Z,17.43
2023-02-05T17:34:11.755Z,18.93
2023-02-05T17:36:38.654Z,22.90
2023-02-05T17:39:05.582Z,20.50
2023-02-05T17:41:55.410Z,23.60
2023-02-05T17:44:22.459Z,24.70
2023-02-05T17:46:49.626Z,22.00
2023-02-05T17:49:16.569Z,26.70
2023-02-05T17:51:43.867Z,26.13
2023-02-05T17:54:23.234Z,25.10
2023-02-05T17:56:51.176Z,25.87
2023-02-05T17:59:24.138Z,28.00
2023-02-05T18:01:52.285Z,24.73
2023-02-05T18:04:19.561Z,24.13
2023-02-05T18:06:49.881Z,26.20
2023-02-05T18:09:18.501Z,26.97
2023-02-05T18:11:49.935Z,29.63
2023-02-05T18:14:17.017Z,27.13
2023-02-05T18:16:45.367Z,27.27
2023-02-05T18:19:13.730Z,23.37
2023-02-05T18:21:47.184Z,26.50
2023-02-05T18:24:14.204Z,25.10
2023-02-05T18:26:43.958Z,20.77
2023-02-05T18:29:10.860Z,26.50
2023-02-05T18:31:42.509Z,22.87
2023-02-05T18:34:12.431Z,24.63
2023-02-05T18:36:39.353Z,21.23
2023-02-05T18:39:06.310Z,23.37
2023-02-05T18:41:36.672Z,26.60
2023-02-05T18:44:03.899Z,23.63
2023-02-05T18:46:31.040Z,23.40
2023-02-05T18:48:58.020Z,23.90
2023-02-05T18:51:25.154Z,21.57
2023-02-05T18:53:55.284Z,21.30
2023-02-05T18:56:26.022Z,23.70
2023-02-05T18:59:01.061Z,21.57
2023-02-05T19:01:30.768Z,23.97
2023-02-05T19:04:10.897Z,22.57
2023-02-05T19:06:40.932Z,17.23
2023-02-05T19:09:10.053Z,25.00
2023-02-05T19:11:41.431Z,23.13
2023-02-05T19:14:12.154Z,17.33
2023-02-05T19:16:41.546Z,16.07
2023-02-05T19:19:16.520Z,17.67
2023-02-05T19:21:45.002Z,17.90
2023-02-05T19:24:13.682Z,19.80
2023-02-05T19:26:44.721Z,16.27
2023-02-05T19:29:18.234Z,19.30
2023-02-05T19:31:45.702Z,16.50
2023-02-05T19:34:16.834Z,19.23
2023-02-05T19:36:46.987Z,18.10
2023-02-05T19:39:14.722Z,21.70
2023-02-05T19:41:45.921Z,18.60
2023-02-05T19:44:13.349Z,17.27
2023-02-05T19:46:48.620Z,20.67
2023-02-05T19:49:21.379Z,19.73
2023-02-05T19:51:55.065Z,19.53
2023-02-05T19:54:23.421Z,17.63
2023-02-05T19:56:50.712Z,18.33
2023-02-05T19:59:18.521Z,18.37
2023-02-05T20:01:46.617Z,17.93
2023-02-05T20:04:22.264Z,17.63
2023-02-05T20:06:49.491Z,19.10
2023-02-05T20:09:17.738Z,20.77
2023-02-05T20:11:48.219Z,18.50
2023-02-05T20:14:17.368Z,19.43
2023-02-05T20:16:47.464Z,17.37
2023-02-05T20:19:16.988Z,18.60
2023-02-05T20:21:45.404Z,18.93
2023-02-05T20:24:12.771Z,17.53
2023-02-05T20:26:39.992Z,24.13
2023-02-05T20:29:25.767Z,16.33
2023-02-05T20:31:53.398Z,20.57
2023-02-05T20:34:26.285Z,19.47
2023-02-05T20:36:56.159Z,25.30
2023-02-05T20:39:25.273Z,18.07
2023-02-05T20:41:52.477Z,18.70
2023-02-05T20:44:19.667Z,21.80
2023-02-05T20:46:46.719Z,18.23
2023-02-05T20:49:15.016Z,19.30
2023-02-05T20:51:42.777Z,17.60
2023-02-05T20:54:10.393Z,15.63
2023-02-05T20:56:38.078Z,21.47
2023-02-05T20:59:07.578Z,16.13
2023-02-05T21:01:40.317Z,18.03
2023-02-05T21:04:09.958Z,16.37
2023-02-05T21:06:39.832Z,18.63
2023-02-05T21:09:09.002Z,17.57
2023-02-05T21:11:36.615Z,17.53
2023-02-05T21:14:04.400Z,17.47
2023-02-05T21:16:33.652Z,16.40
2023-02-05T21:19:00.607Z,15.77
2023-02-05T21:21:31.096Z,15.00
2023-02-05T21:24:02.030Z,12.87
2023-02-05T21:26:35.864Z,13.50
2023-02-05T21:29:12.417Z,14.60
2023-02-05T21:31:44.685Z,16.10
2023-02-05T21:34:16.116Z,13.00
2023-02-05T21:36:43.285Z,13.60
2023-02-05T21:39:20.098Z,11.83
2023-02-05T21:41:47.629Z,13.30
2023-02-05T21:44:15.547Z,13.93
2023-02-05T21:46:43.097Z,12.17
2023-02-05T21:49:11.692Z,13.60
2023-02-05T21:51:39.911Z,12.63
2023-02-05T21:54:07.025Z,13.00
2023-02-05T21:56:42.536Z,12.03
2023-02-05T21:59:11.533Z,12.53
2023-02-05T22:01:39.770Z,13.50
2023-02-05T22:04:15.825Z,12.67
2023-02-05T22:06:43.835Z,12.30
2023-02-05T22:09:15.589Z,10.90
2023-02-05T22:11:43.997Z,12.33
2023-02-05T22:14:12.613Z,11.17
2023-02-05T22:16:40.127Z,14.20
2023-02-05T22:19:07.844Z,11.70
2023-02-05T22:21:42.097Z,9.80
2023-02-05T22:24:17.045Z,10.17
2023-02-05T22:26:46.804Z,12.70
2023-02-05T22:29:19.524Z,9.70
2023-02-05T22:31:51.440Z,14.20
2023-02-05T22:34:18.903Z,10.23
2023-02-05T22:36:45.963Z,10.83
2023-02-05T22:39:12.888Z,10.33
2023-02-05T22:41:49.203Z,9.33
2023-02-05T22:44:16.302Z,9.60
2023-02-05T22:46:44.450Z,9.60
2023-02-05T22:49:15.343Z,8.10
2023-02-05T22:51:43.146Z,12.10
2023-02-05T22:54:13.496Z,8.50
2023-02-05T22:56:40.369Z,10.10
2023-02-05T22:59:07.938Z,8.47
2023-02-05T23:01:38.239Z,10.70
2023-02-05T23:04:08.082Z,8.13
2023-02-05T23:06:38.674Z,7.87
2023-02-05T23:09:13.576Z,8.73
2023-02-05T23:11:41.941Z,10.57
2023-02-05T23:14:10.627Z,10.73
2023-02-05T23:16:41.420Z,8.97
2023-02-05T23:19:13.938Z,10.93
2023-02-05T23:21:40.915Z,8.77
2023-02-05T23:24:09.181Z,8.30
2023-02-05T23:26:41.812Z,8.27
2023-02-05T23:29:11.672Z,7.70
2023-02-05T23:31:38.721Z,8.47
2023-02-05T23:34:06.200Z,8.50
2023-02-05T23:36:33.522Z,7.87
2023-02-05T23:39:00.510Z,7.03
2023-02-05T23:41:37.099Z,8.23
2023-02-05T23:44:22.055Z,9.80
2023-02-05T23:46:50.688Z,8.57
2023-02-05T23:49:21.825Z,8.80
2023-02-05T23:51:51.070Z,10.23
2023-02-05T23:54:18.099Z,11.80
2023-02-05T23:56:45.611Z,8.60
2023-02-05T23:59:14.288Z,7.30
